sensor_id;sensor_type;location;lat;lon;timestamp;P1;durP1;ratioP1;P2;durP2;ratioP2
28838;SDS011;15971;50.772;6.100;2022-07-01T00:00:26;5.50;;;3.30;;
28838;SDS011;15971;50.772;6.100;2022-07-01T00:02:52;4.13;;;3.00;;
28838;SDS011;15971;50.772;6.100;2022-07-01T00:05:17;6.13;;;3.42;;
28838;SDS011;15971;50.772;6.100;2022-07-01T00:07:43;3.67;;;2.83;;
28838;SDS011;15971;50.772;6.100;2022-07-01T00:10:09;6.38;;;3.20;;
28838;SDS011;15971;50.772;6.100;2022-07-01T00:12:34;4.00;;;3.03;;
28838;SDS011;15971;50.772;6.100;2022-07-01T00:15:00;3.45;;;2.55;;
28838;SDS011;15971;50.772;6.100;2022-07-01T00:17:26;4.57;;;3.00;;
28838;SDS011;15971;50.772;6.100;2022-07-01T00:19:51;3.10;;;2.78;;
28838;SDS011;15971;50.772;6.100;2022-07-01T00:22:17;5.68;;;2.42;;
28838;SDS011;15971;50.772;6.100;2022-07-01T00:24:42;4.30;;;2.40;;
28838;SDS011;15971;50.772;6.100;2022-07-01T00:27:10;2.45;;;2.22;;
28838;SDS011;15971;50.772;6.100;2022-07-01T00:29:36;3.75;;;2.72;;
28838;SDS011;15971;50.772;6.100;2022-07-01T00:32:01;3.83;;;2.38;;
28838;SDS011;15971;50.772;6.100;2022-07-01T00:34:27;5.03;;;1.90;;
28838;SDS011;15971;50.772;6.100;2022-07-01T00:36:53;3.58;;;2.70;;
28838;SDS011;15971;50.772;6.100;2022-07-01T00:39:18;4.03;;;2.60;;
28838;SDS011;15971;50.772;6.100;2022-07-01T00:41:44;8.00;;;2.08;;
28838;SDS011;15971;50.772;6.100;2022-07-01T00:44:19;7.60;;;2.10;;
28838;SDS011;15971;50.772;6.100;2022-07-01T00:46:45;3.45;;;2.00;;
28838;SDS011;15971;50.772;6.100;2022-07-01T00:49:14;4.53;;;2.13;;
28838;SDS011;15971;50.772;6.100;2022-07-01T00:51:40;3.67;;;2.13;;
28838;SDS011;15971;50.772;6.100;2022-07-01T00:54:05;4.57;;;2.40;;
28838;SDS011;15971;50.772;6.100;2022-07-01T00:56:31;2.88;;;2.00;;
28838;SDS011;15971;50.772;6.100;2022-07-01T00:58:57;2.17;;;1.98;;
28838;SDS011;15971;50.772;6.100;2022-07-01T01:01:22;2.58;;;2.08;;
28838;SDS011;15971;50.772;6.100;2022-07-01T01:03:48;3.88;;;2.00;;
28838;SDS011;15971;50.772;6.100;2022-07-01T01:06:15;2.20;;;1.88;;
28838;SDS011;15971;50.772;6.100;2022-07-01T01:08:41;4.28;;;2.00;;
28838;SDS011;15971;50.772;6.100;2022-07-01T01:11:07;5.97;;;2.97;;
28838;SDS011;15971;50.772;6.100;2022-07-01T01:13:32;4.55;;;2.50;;
28838;SDS011;15971;50.772;6.100;2022-07-01T01:15:58;7.18;;;2.30;;
28838;SDS011;15971;50.772;6.100;2022-07-01T01:18:24;4.03;;;2.20;;
28838;SDS011;15971;50.772;6.100;2022-07-01T01:20:51;5.95;;;2.95;;
28838;SDS011;15971;50.772;6.100;2022-07-01T01:23:17;8.15;;;3.08;;
28838;SDS011;15971;50.772;6.100;2022-07-01T01:25:43;7.45;;;2.70;;
28838;SDS011;15971;50.772;6.100;2022-07-01T01:28:08;3.25;;;2.33;;
28838;SDS011;15971;50.772;6.100;2022-07-01T01:30:35;7.55;;;2.88;;
28838;SDS011;15971;50.772;6.100;2022-07-01T01:33:01;8.32;;;3.25;;
28838;SDS011;15971;50.772;6.100;2022-07-01T01:35:27;5.10;;;3.30;;
28838;SDS011;15971;50.772;6.100;2022-07-01T01:37:52;4.78;;;2.88;;
28838;SDS011;15971;50.772;6.100;2022-07-01T01:40:18;6.40;;;3.38;;
28838;SDS011;15971;50.772;6.100;2022-07-01T01:42:44;8.50;;;3.47;;
28838;SDS011;15971;50.772;6.100;2022-07-01T01:45:10;7.78;;;3.20;;
28838;SDS011;15971;50.772;6.100;2022-07-01T01:47:36;4.75;;;3.40;;
28838;SDS011;15971;50.772;6.100;2022-07-01T01:50:04;6.00;;;3.40;;
28838;SDS011;15971;50.772;6.100;2022-07-01T01:52:33;5.07;;;3.42;;
28838;SDS011;15971;50.772;6.100;2022-07-01T01:54:59;5.15;;;3.25;;
28838;SDS011;15971;50.772;6.100;2022-07-01T01:57:26;6.38;;;3.05;;
28838;SDS011;15971;50.772;6.100;2022-07-01T01:59:51;11.43;;;3.67;;
28838;SDS011;15971;50.772;6.100;2022-07-01T02:02:17;5.20;;;3.60;;
28838;SDS011;15971;50.772;6.100;2022-07-01T02:04:43;6.03;;;3.38;;
28838;SDS011;15971;50.772;6.100;2022-07-01T02:07:08;4.55;;;2.75;;
28838;SDS011;15971;50.772;6.100;2022-07-01T02:09:34;6.00;;;2.95;;
28838;SDS011;15971;50.772;6.100;2022-07-01T02:12:00;4.95;;;2.92;;
28838;SDS011;15971;50.772;6.100;2022-07-01T02:14:25;3.83;;;3.05;;
28838;SDS011;15971;50.772;6.100;2022-07-01T02:16:52;6.20;;;3.22;;
28838;SDS011;15971;50.772;6.100;2022-07-01T02:19:18;6.10;;;3.13;;
28838;SDS011;15971;50.772;6.100;2022-07-01T02:21:43;5.00;;;2.95;;
28838;SDS011;15971;50.772;6.100;2022-07-01T02:24:09;6.35;;;3.15;;
28838;SDS011;15971;50.772;6.100;2022-07-01T02:26:35;4.38;;;2.88;;
28838;SDS011;15971;50.772;6.100;2022-07-01T02:29:00;4.63;;;2.47;;
28838;SDS011;15971;50.772;6.100;2022-07-01T02:31:26;6.57;;;2.50;;
28838;SDS011;15971;50.772;6.100;2022-07-01T02:33:52;3.80;;;2.50;;
28838;SDS011;15971;50.772;6.100;2022-07-01T02:36:18;7.28;;;2.80;;
28838;SDS011;15971;50.772;6.100;2022-07-01T02:38:43;4.72;;;2.55;;
28838;SDS011;15971;50.772;6.100;2022-07-01T02:41:09;3.90;;;2.35;;
28838;SDS011;15971;50.772;6.100;2022-07-01T02:43:35;6.20;;;2.78;;
28838;SDS011;15971;50.772;6.100;2022-07-01T02:46:01;4.35;;;2.85;;
28838;SDS011;15971;50.772;6.100;2022-07-01T02:48:27;5.80;;;3.00;;
28838;SDS011;15971;50.772;6.100;2022-07-01T02:50:52;3.15;;;2.55;;
28838;SDS011;15971;50.772;6.100;2022-07-01T02:53:18;4.63;;;2.78;;
28838;SDS011;15971;50.772;6.100;2022-07-01T02:55:44;4.53;;;2.92;;
28838;SDS011;15971;50.772;6.100;2022-07-01T02:58:09;5.45;;;3.00;;
28838;SDS011;15971;50.772;6.100;2022-07-01T03:00:35;3.47;;;2.72;;
28838;SDS011;15971;50.772;6.100;2022-07-01T03:03:01;6.63;;;2.72;;
28838;SDS011;15971;50.772;6.100;2022-07-01T03:05:27;8.57;;;3.08;;
28838;SDS011;15971;50.772;6.100;2022-07-01T03:07:53;5.70;;;2.67;;
28838;SDS011;15971;50.772;6.100;2022-07-01T03:10:19;6.90;;;2.33;;
28838;SDS011;15971;50.772;6.100;2022-07-01T03:12:44;6.72;;;3.13;;
28838;SDS011;15971;50.772;6.100;2022-07-01T03:15:11;5.10;;;3.22;;
28838;SDS011;15971;50.772;6.100;2022-07-01T03:17:42;4.65;;;2.53;;
28838;SDS011;15971;50.772;6.100;2022-07-01T03:20:13;4.30;;;2.88;;
28838;SDS011;15971;50.772;6.100;2022-07-01T03:22:40;4.95;;;2.58;;
28838;SDS011;15971;50.772;6.100;2022-07-01T03:25:07;4.03;;;2.95;;
28838;SDS011;15971;50.772;6.100;2022-07-01T03:27:33;5.38;;;2.38;;
28838;SDS011;15971;50.772;6.100;2022-07-01T03:29:59;8.98;;;2.55;;
28838;SDS011;15971;50.772;6.100;2022-07-01T03:32:25;4.07;;;2.30;;
28838;SDS011;15971;50.772;6.100;2022-07-01T03:34:52;7.30;;;2.60;;
28838;SDS011;15971;50.772;6.100;2022-07-01T03:37:19;5.78;;;2.67;;
28838;SDS011;15971;50.772;6.100;2022-07-01T03:39:46;7.53;;;2.75;;
28838;SDS011;15971;50.772;6.100;2022-07-01T03:42:12;3.60;;;2.40;;
28838;SDS011;15971;50.772;6.100;2022-07-01T03:44:38;6.60;;;2.25;;
28838;SDS011;15971;50.772;6.100;2022-07-01T03:47:04;4.85;;;2.40;;
28838;SDS011;15971;50.772;6.100;2022-07-01T03:49:31;5.57;;;2.95;;
28838;SDS011;15971;50.772;6.100;2022-07-01T03:51:57;9.25;;;2.83;;
28838;SDS011;15971;50.772;6.100;2022-07-01T03:54:22;4.82;;;2.38;;
28838;SDS011;15971;50.772;6.100;2022-07-01T03:57:07;4.78;;;2.75;;
28838;SDS011;15971;50.772;6.100;2022-07-01T03:59:38;3.90;;;2.20;;
28838;SDS011;15971;50.772;6.100;2022-07-01T04:02:05;2.85;;;2.30;;
28838;SDS011;15971;50.772;6.100;2022-07-01T04:04:31;9.77;;;3.30;;
28838;SDS011;15971;50.772;6.100;2022-07-01T04:06:58;5.70;;;2.63;;
28838;SDS011;15971;50.772;6.100;2022-07-01T04:09:25;8.48;;;2.10;;
28838;SDS011;15971;50.772;6.100;2022-07-01T04:11:52;8.20;;;2.47;;
28838;SDS011;15971;50.772;6.100;2022-07-01T04:14:19;5.30;;;2.65;;
28838;SDS011;15971;50.772;6.100;2022-07-01T04:16:44;6.72;;;2.40;;
28838;SDS011;15971;50.772;6.100;2022-07-01T04:19:11;4.60;;;2.55;;
28838;SDS011;15971;50.772;6.100;2022-07-01T04:21:38;3.70;;;2.00;;
28838;SDS011;15971;50.772;6.100;2022-07-01T04:24:22;4.45;;;2.20;;
28838;SDS011;15971;50.772;6.100;2022-07-01T04:26:49;4.03;;;2.40;;
28838;SDS011;15971;50.772;6.100;2022-07-01T04:29:15;6.93;;;2.45;;
28838;SDS011;15971;50.772;6.100;2022-07-01T04:31:41;5.18;;;2.30;;
28838;SDS011;15971;50.772;6.100;2022-07-01T04:34:07;8.60;;;2.45;;
28838;SDS011;15971;50.772;6.100;2022-07-01T04:36:34;5.90;;;3.00;;
28838;SDS011;15971;50.772;6.100;2022-07-01T04:39:00;2.75;;;2.13;;
28838;SDS011;15971;50.772;6.100;2022-07-01T04:41:27;4.68;;;2.00;;
28838;SDS011;15971;50.772;6.100;2022-07-01T04:44:11;4.63;;;2.10;;
28838;SDS011;15971;50.772;6.100;2022-07-01T04:46:36;4.28;;;1.98;;
28838;SDS011;15971;50.772;6.100;2022-07-01T04:49:02;3.95;;;1.65;;
28838;SDS011;15971;50.772;6.100;2022-07-01T04:51:28;7.40;;;2.28;;
28838;SDS011;15971;50.772;6.100;2022-07-01T04:53:54;4.28;;;2.10;;
28838;SDS011;15971;50.772;6.100;2022-07-01T04:56:20;7.07;;;2.15;;
28838;SDS011;15971;50.772;6.100;2022-07-01T04:58:46;5.50;;;2.10;;
28838;SDS011;15971;50.772;6.100;2022-07-01T05:01:12;9.95;;;2.10;;
28838;SDS011;15971;50.772;6.100;2022-07-01T05:03:38;4.00;;;2.20;;
28838;SDS011;15971;50.772;6.100;2022-07-01T05:06:04;5.60;;;1.95;;
28838;SDS011;15971;50.772;6.100;2022-07-01T05:08:30;5.20;;;2.20;;
28838;SDS011;15971;50.772;6.100;2022-07-01T05:10:55;3.38;;;1.90;;
28838;SDS011;15971;50.772;6.100;2022-07-01T05:13:21;5.80;;;2.42;;
28838;SDS011;15971;50.772;6.100;2022-07-01T05:15:46;6.30;;;1.77;;
28838;SDS011;15971;50.772;6.100;2022-07-01T05:18:12;3.15;;;1.70;;
28838;SDS011;15971;50.772;6.100;2022-07-01T05:20:56;3.58;;;1.73;;
28838;SDS011;15971;50.772;6.100;2022-07-01T05:23:40;4.25;;;1.90;;
28838;SDS011;15971;50.772;6.100;2022-07-01T05:26:06;4.28;;;1.83;;
28838;SDS011;15971;50.772;6.100;2022-07-01T05:28:32;3.35;;;1.50;;
28838;SDS011;15971;50.772;6.100;2022-07-01T05:30:59;6.38;;;1.75;;
28838;SDS011;15971;50.772;6.100;2022-07-01T05:33:24;4.30;;;2.00;;
28838;SDS011;15971;50.772;6.100;2022-07-01T05:35:53;6.50;;;1.50;;
28838;SDS011;15971;50.772;6.100;2022-07-01T05:38:19;5.50;;;1.42;;
28838;SDS011;15971;50.772;6.100;2022-07-01T05:40:44;4.28;;;1.30;;
28838;SDS011;15971;50.772;6.100;2022-07-01T05:43:10;5.32;;;2.10;;
28838;SDS011;15971;50.772;6.100;2022-07-01T05:45:36;3.70;;;1.35;;
28838;SDS011;15971;50.772;6.100;2022-07-01T05:48:02;4.82;;;1.75;;
28838;SDS011;15971;50.772;6.100;2022-07-01T05:50:28;4.95;;;1.98;;
28838;SDS011;15971;50.772;6.100;2022-07-01T05:52:53;3.97;;;1.83;;
28838;SDS011;15971;50.772;6.100;2022-07-01T05:55:19;2.50;;;1.45;;
28838;SDS011;15971;50.772;6.100;2022-07-01T05:57:44;4.32;;;1.55;;
28838;SDS011;15971;50.772;6.100;2022-07-01T06:00:10;3.20;;;1.25;;
28838;SDS011;15971;50.772;6.100;2022-07-01T06:02:37;4.85;;;1.77;;
28838;SDS011;15971;50.772;6.100;2022-07-01T06:05:03;3.75;;;1.80;;
28838;SDS011;15971;50.772;6.100;2022-07-01T06:07:29;8.75;;;2.20;;
28838;SDS011;15971;50.772;6.100;2022-07-01T06:09:55;2.58;;;1.90;;
28838;SDS011;15971;50.772;6.100;2022-07-01T06:12:22;5.40;;;2.22;;
28838;SDS011;15971;50.772;6.100;2022-07-01T06:14:48;4.72;;;1.85;;
28838;SDS011;15971;50.772;6.100;2022-07-01T06:17:14;5.60;;;1.85;;
28838;SDS011;15971;50.772;6.100;2022-07-01T06:19:40;4.25;;;1.80;;
28838;SDS011;15971;50.772;6.100;2022-07-01T06:22:05;7.97;;;2.22;;
28838;SDS011;15971;50.772;6.100;2022-07-01T06:24:31;9.30;;;3.25;;
28838;SDS011;15971;50.772;6.100;2022-07-01T06:26:57;9.02;;;3.33;;
28838;SDS011;15971;50.772;6.100;2022-07-01T06:29:23;4.65;;;1.85;;
28838;SDS011;15971;50.772;6.100;2022-07-01T06:31:49;3.65;;;2.20;;
28838;SDS011;15971;50.772;6.100;2022-07-01T06:34:14;5.63;;;3.40;;
28838;SDS011;15971;50.772;6.100;2022-07-01T06:36:40;5.60;;;3.05;;
28838;SDS011;15971;50.772;6.100;2022-07-01T06:39:06;5.05;;;3.03;;
28838;SDS011;15971;50.772;6.100;2022-07-01T06:41:31;9.20;;;3.80;;
28838;SDS011;15971;50.772;6.100;2022-07-01T06:44:00;8.43;;;3.95;;
28838;SDS011;15971;50.772;6.100;2022-07-01T06:46:27;6.38;;;3.75;;
28838;SDS011;15971;50.772;6.100;2022-07-01T06:48:54;7.85;;;2.90;;
28838;SDS011;15971;50.772;6.100;2022-07-01T06:51:21;6.43;;;3.10;;
28838;SDS011;15971;50.772;6.100;2022-07-01T06:53:47;19.50;;;10.38;;
28838;SDS011;15971;50.772;6.100;2022-07-01T06:56:15;12.60;;;5.68;;
28838;SDS011;15971;50.772;6.100;2022-07-01T06:58:41;12.57;;;3.05;;
28838;SDS011;15971;50.772;6.100;2022-07-01T07:01:07;13.52;;;6.82;;
28838;SDS011;15971;50.772;6.100;2022-07-01T07:03:34;6.30;;;3.40;;
28838;SDS011;15971;50.772;6.100;2022-07-01T07:05:59;9.63;;;2.60;;
28838;SDS011;15971;50.772;6.100;2022-07-01T07:08:26;6.57;;;2.30;;
28838;SDS011;15971;50.772;6.100;2022-07-01T07:10:52;6.60;;;2.53;;
28838;SDS011;15971;50.772;6.100;2022-07-01T07:13:18;8.30;;;2.65;;
28838;SDS011;15971;50.772;6.100;2022-07-01T07:15:44;3.53;;;1.80;;
28838;SDS011;15971;50.772;6.100;2022-07-01T07:18:09;9.43;;;1.80;;
28838;SDS011;15971;50.772;6.100;2022-07-01T07:20:35;12.10;;;2.45;;
28838;SDS011;15971;50.772;6.100;2022-07-01T07:23:01;8.02;;;2.00;;
28838;SDS011;15971;50.772;6.100;2022-07-01T07:25:27;4.90;;;1.80;;
28838;SDS011;15971;50.772;6.100;2022-07-01T07:27:53;5.13;;;1.80;;
28838;SDS011;15971;50.772;6.100;2022-07-01T07:30:19;3.38;;;1.63;;
28838;SDS011;15971;50.772;6.100;2022-07-01T07:32:45;7.10;;;2.13;;
28838;SDS011;15971;50.772;6.100;2022-07-01T07:35:11;8.52;;;1.95;;
28838;SDS011;15971;50.772;6.100;2022-07-01T07:37:37;3.65;;;1.27;;
28838;SDS011;15971;50.772;6.100;2022-07-01T07:40:03;5.35;;;2.30;;
28838;SDS011;15971;50.772;6.100;2022-07-01T07:42:35;37.28;;;19.35;;
28838;SDS011;15971;50.772;6.100;2022-07-01T07:45:02;6.03;;;2.40;;
28838;SDS011;15971;50.772;6.100;2022-07-01T07:47:28;13.50;;;3.80;;
28838;SDS011;15971;50.772;6.100;2022-07-01T07:49:54;6.65;;;1.90;;
28838;SDS011;15971;50.772;6.100;2022-07-01T07:52:19;3.85;;;2.00;;
28838;SDS011;15971;50.772;6.100;2022-07-01T07:54:45;6.78;;;2.05;;
28838;SDS011;15971;50.772;6.100;2022-07-01T07:57:11;9.45;;;1.73;;
28838;SDS011;15971;50.772;6.100;2022-07-01T07:59:37;4.88;;;1.10;;
28838;SDS011;15971;50.772;6.100;2022-07-01T08:02:02;8.13;;;1.80;;
28838;SDS011;15971;50.772;6.100;2022-07-01T08:04:28;3.95;;;1.58;;
28838;SDS011;15971;50.772;6.100;2022-07-01T08:06:54;3.60;;;1.20;;
28838;SDS011;15971;50.772;6.100;2022-07-01T08:09:20;8.13;;;1.55;;
28838;SDS011;15971;50.772;6.100;2022-07-01T08:11:45;4.63;;;1.73;;
28838;SDS011;15971;50.772;6.100;2022-07-01T08:14:12;6.57;;;1.70;;
28838;SDS011;15971;50.772;6.100;2022-07-01T08:16:37;8.98;;;2.15;;
28838;SDS011;15971;50.772;6.100;2022-07-01T08:19:03;3.45;;;1.30;;
28838;SDS011;15971;50.772;6.100;2022-07-01T08:21:29;4.10;;;1.10;;
28838;SDS011;15971;50.772;6.100;2022-07-01T08:23:55;6.13;;;1.75;;
28838;SDS011;15971;50.772;6.100;2022-07-01T08:26:21;10.07;;;4.60;;
28838;SDS011;15971;50.772;6.100;2022-07-01T08:28:47;4.82;;;1.50;;
28838;SDS011;15971;50.772;6.100;2022-07-01T08:31:12;5.32;;;1.77;;
28838;SDS011;15971;50.772;6.100;2022-07-01T08:33:38;3.85;;;1.20;;
28838;SDS011;15971;50.772;6.100;2022-07-01T08:36:05;5.75;;;2.10;;
28838;SDS011;15971;50.772;6.100;2022-07-01T08:38:31;7.63;;;1.35;;
28838;SDS011;15971;50.772;6.100;2022-07-01T08:40:57;5.03;;;2.55;;
28838;SDS011;15971;50.772;6.100;2022-07-01T08:43:23;6.90;;;1.77;;
28838;SDS011;15971;50.772;6.100;2022-07-01T08:45:50;5.97;;;1.30;;
28838;SDS011;15971;50.772;6.100;2022-07-01T08:48:16;3.10;;;1.40;;
28838;SDS011;15971;50.772;6.100;2022-07-01T08:50:42;7.18;;;1.55;;
28838;SDS011;15971;50.772;6.100;2022-07-01T08:53:08;5.30;;;1.13;;
28838;SDS011;15971;50.772;6.100;2022-07-01T08:55:35;11.45;;;3.47;;
28838;SDS011;15971;50.772;6.100;2022-07-01T08:58:20;4.72;;;2.08;;
28838;SDS011;15971;50.772;6.100;2022-07-01T09:00:46;3.20;;;1.50;;
28838;SDS011;15971;50.772;6.100;2022-07-01T09:03:11;2.40;;;1.30;;
28838;SDS011;15971;50.772;6.100;2022-07-01T09:05:37;2.60;;;1.20;;
28838;SDS011;15971;50.772;6.100;2022-07-01T09:08:05;5.43;;;1.20;;
28838;SDS011;15971;50.772;6.100;2022-07-01T09:10:32;3.42;;;1.35;;
28838;SDS011;15971;50.772;6.100;2022-07-01T09:13:05;2.58;;;1.73;;
28838;SDS011;15971;50.772;6.100;2022-07-01T09:15:32;2.85;;;1.35;;
28838;SDS011;15971;50.772;6.100;2022-07-01T09:20:32;2.95;;;0.85;;
28838;SDS011;15971;50.772;6.100;2022-07-01T09:25:29;6.30;;;1.98;;
28838;SDS011;15971;50.772;6.100;2022-07-01T09:28:03;9.27;;;1.42;;
28838;SDS011;15971;50.772;6.100;2022-07-01T09:30:33;4.57;;;1.60;;
28838;SDS011;15971;50.772;6.100;2022-07-01T09:33:16;3.40;;;1.40;;
28838;SDS011;15971;50.772;6.100;2022-07-01T09:35:42;7.10;;;1.35;;
28838;SDS011;15971;50.772;6.100;2022-07-01T09:38:13;3.80;;;1.50;;
28838;SDS011;15971;50.772;6.100;2022-07-01T09:40:56;5.85;;;1.60;;
28838;SDS011;15971;50.772;6.100;2022-07-01T09:43:30;7.80;;;1.60;;
28838;SDS011;15971;50.772;6.100;2022-07-01T09:45:58;27.65;;;12.43;;
28838;SDS011;15971;50.772;6.100;2022-07-01T09:48:27;6.32;;;1.60;;
28838;SDS011;15971;50.772;6.100;2022-07-01T09:51:00;7.72;;;2.22;;
28838;SDS011;15971;50.772;6.100;2022-07-01T09:53:26;2.58;;;1.38;;
28838;SDS011;15971;50.772;6.100;2022-07-01T09:55:52;6.30;;;1.42;;
28838;SDS011;15971;50.772;6.100;2022-07-01T09:58:18;4.88;;;1.05;;
28838;SDS011;15971;50.772;6.100;2022-07-01T10:00:44;3.25;;;1.25;;
28838;SDS011;15971;50.772;6.100;2022-07-01T10:03:10;3.28;;;1.45;;
28838;SDS011;15971;50.772;6.100;2022-07-01T10:05:38;5.68;;;1.45;;
28838;SDS011;15971;50.772;6.100;2022-07-01T10:13:35;2.92;;;1.13;;
28838;SDS011;15971;50.772;6.100;2022-07-01T10:16:02;2.22;;;0.93;;
28838;SDS011;15971;50.772;6.100;2022-07-01T10:18:28;4.03;;;1.00;;
28838;SDS011;15971;50.772;6.100;2022-07-01T10:20:55;2.13;;;0.82;;
28838;SDS011;15971;50.772;6.100;2022-07-01T10:23:23;5.38;;;1.23;;
28838;SDS011;15971;50.772;6.100;2022-07-01T10:26:10;2.47;;;1.02;;
28838;SDS011;15971;50.772;6.100;2022-07-01T10:28:43;3.10;;;0.90;;
28838;SDS011;15971;50.772;6.100;2022-07-01T10:31:13;2.95;;;0.85;;
28838;SDS011;15971;50.772;6.100;2022-07-01T10:39:28;4.38;;;0.88;;
28838;SDS011;15971;50.772;6.100;2022-07-01T10:44:10;5.97;;;0.90;;
28838;SDS011;15971;50.772;6.100;2022-07-01T10:46:38;5.30;;;0.82;;
28838;SDS011;15971;50.772;6.100;2022-07-01T10:49:12;2.20;;;0.75;;
28838;SDS011;15971;50.772;6.100;2022-07-01T10:52:03;7.15;;;0.55;;
28838;SDS011;15971;50.772;6.100;2022-07-01T10:59:51;4.65;;;1.00;;
28838;SDS011;15971;50.772;6.100;2022-07-01T11:02:20;4.15;;;1.40;;
28838;SDS011;15971;50.772;6.100;2022-07-01T11:04:59;2.78;;;0.73;;
28838;SDS011;15971;50.772;6.100;2022-07-01T11:07:30;3.95;;;1.33;;
28838;SDS011;15971;50.772;6.100;2022-07-01T11:09:57;7.30;;;0.90;;
28838;SDS011;15971;50.772;6.100;2022-07-01T11:12:24;2.90;;;0.75;;
28838;SDS011;15971;50.772;6.100;2022-07-01T11:14:53;5.40;;;0.90;;
28838;SDS011;15971;50.772;6.100;2022-07-01T11:17:20;5.60;;;1.30;;
28838;SDS011;15971;50.772;6.100;2022-07-01T11:19:47;9.88;;;1.20;;
28838;SDS011;15971;50.772;6.100;2022-07-01T11:22:21;2.42;;;0.98;;
28838;SDS011;15971;50.772;6.100;2022-07-01T11:24:51;3.03;;;1.15;;
28838;SDS011;15971;50.772;6.100;2022-07-01T11:27:18;4.80;;;1.10;;
28838;SDS011;15971;50.772;6.100;2022-07-01T11:29:44;1.52;;;0.82;;
28838;SDS011;15971;50.772;6.100;2022-07-01T11:32:10;4.18;;;0.70;;
28838;SDS011;15971;50.772;6.100;2022-07-01T11:34:36;4.72;;;0.80;;
28838;SDS011;15971;50.772;6.100;2022-07-01T11:37:08;4.55;;;1.05;;
28838;SDS011;15971;50.772;6.100;2022-07-01T11:40:06;1.85;;;0.65;;
28838;SDS011;15971;50.772;6.100;2022-07-01T11:42:34;2.47;;;0.70;;
28838;SDS011;15971;50.772;6.100;2022-07-01T11:45:00;0.65;;;0.60;;
28838;SDS011;15971;50.772;6.100;2022-07-01T11:47:26;2.28;;;0.75;;
28838;SDS011;15971;50.772;6.100;2022-07-01T11:49:53;4.88;;;1.10;;
28838;SDS011;15971;50.772;6.100;2022-07-01T11:52:20;2.17;;;0.68;;
28838;SDS011;15971;50.772;6.100;2022-07-01T11:54:47;5.68;;;0.80;;
28838;SDS011;15971;50.772;6.100;2022-07-01T11:57:22;2.80;;;0.80;;
28838;SDS011;15971;50.772;6.100;2022-07-01T11:59:49;3.55;;;1.20;;
28838;SDS011;15971;50.772;6.100;2022-07-01T12:02:17;9.77;;;0.77;;
28838;SDS011;15971;50.772;6.100;2022-07-01T12:04:44;5.75;;;1.65;;
28838;SDS011;15971;50.772;6.100;2022-07-01T12:07:11;3.88;;;0.60;;
28838;SDS011;15971;50.772;6.100;2022-07-01T12:09:38;2.75;;;0.40;;
28838;SDS011;15971;50.772;6.100;2022-07-01T12:12:04;1.52;;;0.50;;
28838;SDS011;15971;50.772;6.100;2022-07-01T12:14:31;2.75;;;0.68;;
28838;SDS011;15971;50.772;6.100;2022-07-01T12:17:01;2.47;;;0.90;;
28838;SDS011;15971;50.772;6.100;2022-07-01T12:24:32;3.53;;;0.80;;
28838;SDS011;15971;50.772;6.100;2022-07-01T12:29:24;5.57;;;0.47;;
28838;SDS011;15971;50.772;6.100;2022-07-01T12:31:56;2.80;;;0.70;;
28838;SDS011;15971;50.772;6.100;2022-07-01T12:34:37;3.03;;;0.57;;
28838;SDS011;15971;50.772;6.100;2022-07-01T12:37:20;2.78;;;0.40;;
28838;SDS011;15971;50.772;6.100;2022-07-01T12:39:50;5.88;;;0.95;;
28838;SDS011;15971;50.772;6.100;2022-07-01T12:45:01;5.47;;;0.65;;
28838;SDS011;15971;50.772;6.100;2022-07-01T12:50:10;8.10;;;1.27;;
28838;SDS011;15971;50.772;6.100;2022-07-01T12:52:37;3.58;;;1.20;;
28838;SDS011;15971;50.772;6.100;2022-07-01T12:55:16;3.90;;;1.00;;
28838;SDS011;15971;50.772;6.100;2022-07-01T12:57:46;4.75;;;1.27;;
28838;SDS011;15971;50.772;6.100;2022-07-01T13:00:16;3.47;;;1.10;;
28838;SDS011;15971;50.772;6.100;2022-07-01T13:02:43;4.50;;;1.08;;
28838;SDS011;15971;50.772;6.100;2022-07-01T13:05:09;4.25;;;1.00;;
28838;SDS011;15971;50.772;6.100;2022-07-01T13:07:35;5.05;;;1.00;;
28838;SDS011;15971;50.772;6.100;2022-07-01T13:10:02;4.50;;;1.40;;
28838;SDS011;15971;50.772;6.100;2022-07-01T13:12:28;2.80;;;1.08;;
28838;SDS011;15971;50.772;6.100;2022-07-01T13:14:54;7.78;;;0.90;;
28838;SDS011;15971;50.772;6.100;2022-07-01T13:17:22;3.03;;;0.95;;
28838;SDS011;15971;50.772;6.100;2022-07-01T13:19:48;5.05;;;1.00;;
28838;SDS011;15971;50.772;6.100;2022-07-01T13:22:14;6.00;;;0.80;;
28838;SDS011;15971;50.772;6.100;2022-07-01T13:24:39;1.73;;;0.50;;
28838;SDS011;15971;50.772;6.100;2022-07-01T13:27:05;4.88;;;0.60;;
28838;SDS011;15971;50.772;6.100;2022-07-01T13:29:31;4.32;;;0.40;;
28838;SDS011;15971;50.772;6.100;2022-07-01T13:31:57;3.17;;;0.60;;
28838;SDS011;15971;50.772;6.100;2022-07-01T13:34:22;5.57;;;0.70;;
28838;SDS011;15971;50.772;6.100;2022-07-01T13:36:48;7.15;;;1.88;;
28838;SDS011;15971;50.772;6.100;2022-07-01T13:39:15;4.38;;;2.35;;
28838;SDS011;15971;50.772;6.100;2022-07-01T13:41:40;3.00;;;1.13;;
28838;SDS011;15971;50.772;6.100;2022-07-01T13:44:06;7.65;;;0.93;;
28838;SDS011;15971;50.772;6.100;2022-07-01T13:46:32;2.70;;;1.05;;
28838;SDS011;15971;50.772;6.100;2022-07-01T13:48:58;5.43;;;0.73;;
28838;SDS011;15971;50.772;6.100;2022-07-01T13:51:23;3.10;;;0.88;;
28838;SDS011;15971;50.772;6.100;2022-07-01T13:53:49;3.70;;;0.80;;
28838;SDS011;15971;50.772;6.100;2022-07-01T13:56:14;4.22;;;0.93;;
28838;SDS011;15971;50.772;6.100;2022-07-01T13:58:40;3.67;;;0.88;;
28838;SDS011;15971;50.772;6.100;2022-07-01T14:01:06;4.05;;;0.85;;
28838;SDS011;15971;50.772;6.100;2022-07-01T14:03:31;2.55;;;0.55;;
28838;SDS011;15971;50.772;6.100;2022-07-01T14:05:57;6.72;;;2.50;;
28838;SDS011;15971;50.772;6.100;2022-07-01T14:08:22;6.78;;;3.13;;
28838;SDS011;15971;50.772;6.100;2022-07-01T14:10:48;4.63;;;0.70;;
28838;SDS011;15971;50.772;6.100;2022-07-01T14:13:14;1.50;;;0.50;;
28838;SDS011;15971;50.772;6.100;2022-07-01T14:15:41;3.22;;;0.80;;
28838;SDS011;15971;50.772;6.100;2022-07-01T14:18:07;3.33;;;1.00;;
28838;SDS011;15971;50.772;6.100;2022-07-01T14:20:33;2.45;;;0.77;;
28838;SDS011;15971;50.772;6.100;2022-07-01T14:22:59;4.22;;;0.63;;
28838;SDS011;15971;50.772;6.100;2022-07-01T14:25:25;11.45;;;3.00;;
28838;SDS011;15971;50.772;6.100;2022-07-01T14:27:50;171.10;;;62.80;;
28838;SDS011;15971;50.772;6.100;2022-07-01T14:30:16;97.85;;;28.05;;
28838;SDS011;15971;50.772;6.100;2022-07-01T14:32:42;319.00;;;110.15;;
28838;SDS011;15971;50.772;6.100;2022-07-01T14:35:07;647.40;;;240.85;;
28838;SDS011;15971;50.772;6.100;2022-07-01T14:37:34;372.08;;;130.70;;
28838;SDS011;15971;50.772;6.100;2022-07-01T14:40:02;129.13;;;37.97;;
28838;SDS011;15971;50.772;6.100;2022-07-01T14:42:28;108.38;;;33.13;;
28838;SDS011;15971;50.772;6.100;2022-07-01T14:44:54;67.70;;;22.13;;
28838;SDS011;15971;50.772;6.100;2022-07-01T14:47:21;27.25;;;10.35;;
28838;SDS011;15971;50.772;6.100;2022-07-01T14:49:47;20.75;;;7.53;;
28838;SDS011;15971;50.772;6.100;2022-07-01T14:52:14;33.75;;;13.43;;
28838;SDS011;15971;50.772;6.100;2022-07-01T14:54:42;9.50;;;3.58;;
28838;SDS011;15971;50.772;6.100;2022-07-01T14:57:08;17.52;;;5.45;;
28838;SDS011;15971;50.772;6.100;2022-07-01T14:59:34;15.45;;;4.38;;
28838;SDS011;15971;50.772;6.100;2022-07-01T15:02:00;5.50;;;1.15;;
28838;SDS011;15971;50.772;6.100;2022-07-01T15:04:29;5.65;;;1.60;;
28838;SDS011;15971;50.772;6.100;2022-07-01T15:06:56;4.00;;;1.30;;
28838;SDS011;15971;50.772;6.100;2022-07-01T15:09:22;2.67;;;1.00;;
28838;SDS011;15971;50.772;6.100;2022-07-01T15:11:48;1.77;;;0.50;;
28838;SDS011;15971;50.772;6.100;2022-07-01T15:14:16;2.30;;;1.00;;
28838;SDS011;15971;50.772;6.100;2022-07-01T15:16:42;3.83;;;1.20;;
28838;SDS011;15971;50.772;6.100;2022-07-01T15:19:08;2.35;;;0.80;;
28838;SDS011;15971;50.772;6.100;2022-07-01T15:21:34;2.15;;;0.88;;